Time,TemperatureF,DewpointF,PressureIn,WindDirection,WindDirectionDegrees,WindSpeedMPH,WindSpeedGustMPH,Humidity,HourlyPrecipIn,Conditions,Clouds,dailyrainin,SoftwareType,DateUTC
2013-07-13 00:03:00,54.3,38.5,29.87,SW,219,0.0,0.0,55,0.00,,,0.00,VWS V14.01,2013-07-13 07:03:00,
2013-07-13 00:08:00,54.3,38.5,29.87,SSW,210,0.0,0.0,55,0.00,,,0.00,VWS V14.01,2013-07-13 07:08:00,
2013-07-13 00:13:00,54.3,38.5,29.87,WSW,256,0.0,2.7,55,0.00,,,0.00,VWS V14.01,2013-07-13 07:13:00,
2013-07-13 00:18:00,54.3,38.5,29.87,SSW,211,0.0,0.0,55,0.00,,,0.00,VWS V14.01,2013-07-13 07:18:00,
2013-07-13 00:23:00,54.3,39.0,29.87,SSW,213,2.7,2.7,56,0.00,,,0.00,VWS V14.01,2013-07-13 07:23:00,
2013-07-13 00:28:00,54.3,39.0,29.87,SSW,213,0.0,0.0,56,0.00,,,0.00,VWS V14.01,2013-07-13 07:28:00,
2013-07-13 00:33:00,54.3,39.0,29.87,SSW,213,0.0,0.0,56,0.00,,,0.00,VWS V14.01,2013-07-13 07:33:00,
2013-07-13 00:38:00,54.3,39.0,29.87,SSW,213,2.7,2.7,56,0.00,,,0.00,VWS V14.01,2013-07-13 07:38:00,
2013-07-13 00:43:00,54.3,39.0,29.87,SSW,213,0.0,0.0,56,0.00,,,0.00,VWS V14.01,2013-07-13 07:43:00,
2013-07-13 00:48:00,54.3,39.0,29.87,SSW,212,2.2,2.2,56,0.00,,,0.00,VWS V14.01,2013-07-13 07:48:00,
2013-07-13 00:53:00,54.3,39.0,29.87,SSW,212,0.0,0.0,56,0.00,,,0.00,VWS V14.01,2013-07-13 07:53:00,
2013-07-13 00:58:00,54.3,39.0,29.87,SW,227,0.0,3.1,56,0.00,,,0.00,VWS V14.01,2013-07-13 07:58:00,
2013-07-13 01:03:00,54.3,39.0,29.87,SW,226,0.0,0.0,56,0.00,,,0.00,VWS V14.01,2013-07-13 08:03:00,
2013-07-13 01:08:00,54.3,39.0,29.87,SW,222,0.0,0.0,56,0.00,,,0.00,VWS V14.01,2013-07-13 08:08:00,
2013-07-13 01:13:00,54.5,39.1,29.87,SW,215,0.0,0.0,56,0.00,,,0.00,VWS V14.01,2013-07-13 08:13:00,
2013-07-13 01:18:00,54.5,39.6,29.87,SSW,209,0.0,0.0,57,0.00,,,0.00,VWS V14.01,2013-07-13 08:18:00,
2013-07-13 01:23:00,54.5,39.6,29.87,SSW,209,0.0,2.7,57,0.00,,,0.00,VWS V14.01,2013-07-13 08:23:00,
2013-07-13 01:28:00,54.5,39.6,29.87,SSW,211,0.0,0.0,57,0.00,,,0.00,VWS V14.01,2013-07-13 08:28:00,
2013-07-13 01:33:00,54.5,39.6,29.87,South,170,2.7,2.7,57,0.00,,,0.00,VWS V14.01,2013-07-13 08:33:00,
2013-07-13 01:38:00,54.5,39.6,29.87,SSW,196,3.6,3.6,57,0.00,,,0.00,VWS V14.01,2013-07-13 08:38:00,
2013-07-13 01:43:00,54.5,39.6,29.87,SW,229,0.0,2.7,57,0.00,,,0.00,VWS V14.01,2013-07-13 08:43:00,
2013-07-13 01:48:00,54.1,39.3,29.87,SW,229,0.0,0.0,57,0.00,,,0.00,VWS V14.01,2013-07-13 08:48:00,
2013-07-13 01:53:00,54.0,39.1,29.87,SW,229,2.2,2.2,57,0.00,,,0.00,VWS V14.01,2013-07-13 08:53:00,
2013-07-13 01:58:00,53.8,38.9,29.87,SW,229,0.0,0.0,57,0.00,,,0.00,VWS V14.01,2013-07-13 08:58:00,
2013-07-13 02:03:00,53.6,38.8,29.87,SW,229,0.0,0.0,57,0.00,,,0.00,VWS V14.01,2013-07-13 09:03:00,
2013-07-13 02:08:00,53.6,38.8,29.87,SW,229,0.0,0.0,57,0.00,,,0.00,VWS V14.01,2013-07-13 09:08:00,
2013-07-13 02:13:00,53.4,39.0,29.87,SW,229,0.0,0.0,58,0.00,,,0.00,VWS V14.01,2013-07-13 09:13:00,
2013-07-13 02:18:00,53.4,39.0,29.87,SW,229,0.0,0.0,58,0.00,,,0.00,VWS V14.01,2013-07-13 09:18:00,
2013-07-13 02:23:00,53.2,38.9,29.87,SW,229,0.0,0.0,58,0.00,,,0.00,VWS V14.01,2013-07-13 09:23:00,
2013-07-13 02:28:00,53.2,38.9,29.87,SW,229,0.0,0.0,58,0.00,,,0.00,VWS V14.01,2013-07-13 09:28:00,
2013-07-13 02:33:00,53.2,38.9,29.87,SW,229,0.0,0.0,58,0.00,,,0.00,VWS V14.01,2013-07-13 09:33:00,
2013-07-13 02:38:00,53.1,38.7,29.87,SW,229,0.0,0.0,58,0.00,,,0.00,VWS V14.01,2013-07-13 09:38:00,
2013-07-13 02:43:00,53.1,39.1,29.87,SW,229,0.0,0.0,59,0.00,,,0.00,VWS V14.01,2013-07-13 09:43:00,
2013-07-13 02:48:00,53.1,39.1,29.87,SW,229,2.2,2.2,59,0.00,,,0.00,VWS V14.01,2013-07-13 09:48:00,
2013-07-13 02:53:00,53.1,39.1,29.87,SW,229,0.0,0.0,59,0.00,,,0.00,VWS V14.01,2013-07-13 09:53:00,
2013-07-13 02:58:00,53.1,39.1,29.87,South,180,2.2,4.0,59,0.00,,,0.00,VWS V14.01,2013-07-13 09:58:00,
2013-07-13 03:03:00,53.1,39.1,29.87,South,171,2.7,2.7,59,0.00,,,0.00,VWS V14.01,2013-07-13 10:03:00,
2013-07-13 03:08:00,53.1,39.1,29.87,SSW,208,0.0,2.7,59,0.00,,,0.00,VWS V14.01,2013-07-13 10:08:00,
2013-07-13 03:13:00,53.1,39.1,29.87,SW,229,0.0,0.0,59,0.00,,,0.00,VWS V14.01,2013-07-13 10:13:00,
2013-07-13 03:18:00,53.1,39.1,29.87,SW,227,2.2,2.7,59,0.00,,,0.00,VWS V14.01,2013-07-13 10:18:00,
2013-07-13 03:23:00,53.2,39.7,29.87,South,190,2.2,3.1,60,0.00,,,0.00,VWS V14.01,2013-07-13 10:23:00,
2013-07-13 03:28:00,53.4,40.3,29.87,SSW,211,3.1,3.1,61,0.00,,,0.00,VWS V14.01,2013-07-13 10:28:00,
2013-07-13 03:33:00,53.6,40.5,29.87,SW,218,0.0,3.1,61,0.00,,,0.00,VWS V14.01,2013-07-13 10:33:00,
2013-07-13 03:38:00,53.8,40.7,29.87,SSW,211,4.5,4.5,61,0.00,,,0.00,VWS V14.01,2013-07-13 10:38:00,
2013-07-13 03:43:00,54.0,41.2,29.87,SSW,200,2.7,3.6,62,0.00,,,0.00,VWS V14.01,2013-07-13 10:43:00,
2013-07-13 03:48:00,54.0,41.2,29.87,SSW,198,2.7,3.1,62,0.00,,,0.00,VWS V14.01,2013-07-13 10:48:00,
2013-07-13 03:53:00,54.1,41.8,29.87,SW,217,2.2,3.6,63,0.00,,,0.00,VWS V14.01,2013-07-13 10:53:00,
2013-07-13 03:58:00,54.1,42.2,29.87,SSW,201,5.4,5.4,64,0.00,,,0.00,VWS V14.01,2013-07-13 10:58:00,
2013-07-13 04:04:00,54.3,42.4,29.87,SSW,199,3.1,3.6,64,0.00,,,0.00,VWS V14.01,2013-07-13 11:04:00,
2013-07-13 04:09:00,54.3,42.8,29.87,SSW,198,2.7,3.6,65,0.00,,,0.00,VWS V14.01,2013-07-13 11:09:00,
2013-07-13 04:14:00,54.3,42.8,29.87,WSW,245,4.0,4.0,65,0.00,,,0.00,VWS V14.01,2013-07-13 11:14:00,
2013-07-13 04:19:00,54.3,42.8,29.84,SW,218,2.2,3.6,65,0.00,,,0.00,VWS V14.01,2013-07-13 11:19:00,
2013-07-13 04:24:00,54.3,43.2,29.84,SW,218,0.0,2.7,66,0.00,,,0.00,VWS V14.01,2013-07-13 11:24:00,
2013-07-13 04:29:00,54.3,43.2,29.84,SW,217,2.2,2.7,66,0.00,,,0.00,VWS V14.01,2013-07-13 11:29:00,
2013-07-13 04:34:00,54.3,43.2,29.84,SW,214,3.6,3.6,66,0.00,,,0.00,VWS V14.01,2013-07-13 11:34:00,
2013-07-13 04:39:00,54.3,43.6,29.84,SW,221,0.0,2.7,67,0.00,,,0.00,VWS V14.01,2013-07-13 11:39:00,
2013-07-13 04:44:00,54.5,43.8,29.84,South,185,0.0,3.1,67,0.00,,,0.00,VWS V14.01,2013-07-13 11:44:00,
2013-07-13 04:49:00,54.5,43.8,29.84,SW,230,2.2,3.6,67,0.00,,,0.00,VWS V14.01,2013-07-13 11:49:00,
2013-07-13 04:54:00,54.3,43.6,29.84,SSW,213,0.0,3.6,67,0.00,,,0.00,VWS V14.01,2013-07-13 11:54:00,
2013-07-13 04:59:00,54.3,44.0,29.84,SSW,209,2.2,4.0,68,0.00,,,0.00,VWS V14.01,2013-07-13 11:59:00,
2013-07-13 05:04:00,54.3,44.0,29.87,WSW,246,3.1,4.0,68,0.00,,,0.00,VWS V14.01,2013-07-13 12:04:00,
2013-07-13 05:09:00,54.5,44.2,29.87,WSW,238,0.0,2.2,68,0.00,,,0.00,VWS V14.01,2013-07-13 12:09:00,
2013-07-13 05:14:00,54.5,44.2,29.87,SW,219,2.7,2.7,68,0.00,,,0.00,VWS V14.01,2013-07-13 12:14:00,
2013-07-13 05:19:00,54.5,44.2,29.87,SSW,197,0.0,3.1,68,0.00,,,0.00,VWS V14.01,2013-07-13 12:19:00,
2013-07-13 05:24:00,54.5,44.5,29.87,SW,236,3.1,3.1,69,0.00,,,0.00,VWS V14.01,2013-07-13 12:24:00,
2013-07-13 05:29:00,54.3,44.4,29.87,SW,224,0.0,0.0,69,0.00,,,0.00,VWS V14.01,2013-07-13 12:29:00,
2013-07-13 05:34:00,54.1,43.8,29.87,SW,224,0.0,0.0,68,0.00,,,0.00,VWS V14.01,2013-07-13 12:34:00,
2013-07-13 05:39:00,54.0,43.7,29.87,South,178,2.2,4.0,68,0.00,,,0.00,VWS V14.01,2013-07-13 12:39:00,
2013-07-13 05:44:00,53.8,43.5,29.87,SSE,167,2.2,2.7,68,0.00,,,0.00,VWS V14.01,2013-07-13 12:44:00,
2013-07-13 05:49:00,53.6,43.7,29.87,South,183,0.0,0.0,69,0.00,,,0.00,VWS V14.01,2013-07-13 12:49:00,
2013-07-13 05:54:00,53.6,43.7,29.87,SSE,149,0.0,0.0,69,0.00,,,0.00,VWS V14.01,2013-07-13 12:54:00,
2013-07-13 05:59:00,53.8,43.9,29.87,South,176,0.0,0.0,69,0.00,,,0.00,VWS V14.01,2013-07-13 12:59:00,
2013-07-13 06:04:00,54.0,44.4,29.87,SSW,196,0.0,2.2,70,0.00,,,0.00,VWS V14.01,2013-07-13 13:04:00,
2013-07-13 06:09:00,54.1,44.6,29.87,South,191,0.0,0.0,70,0.00,,,0.00,VWS V14.01,2013-07-13 13:09:00,
2013-07-13 06:14:00,54.1,44.6,29.87,SSE,163,0.0,0.0,70,0.00,,,0.00,VWS V14.01,2013-07-13 13:14:00,
2013-07-13 06:19:00,54.3,44.8,29.87,SSW,196,0.0,2.2,70,0.00,,,0.00,VWS V14.01,2013-07-13 13:19:00,
2013-07-13 06:24:00,54.3,44.8,29.87,SSW,200,0.0,2.2,70,0.00,,,0.00,VWS V14.01,2013-07-13 13:24:00,
2013-07-13 06:29:00,54.5,44.9,29.87,SSW,195,0.0,0.0,70,0.00,,,0.00,VWS V14.01,2013-07-13 13:29:00,
2013-07-13 06:34:00,54.5,44.9,29.90,SSW,203,0.0,0.0,70,0.00,,,0.00,VWS V14.01,2013-07-13 13:34:00,
2013-07-13 06:39:00,54.5,44.9,29.90,SW,214,2.2,2.2,70,0.00,,,0.00,VWS V14.01,2013-07-13 13:39:00,
2013-07-13 06:44:00,54.7,45.1,29.90,SW,216,0.0,3.1,70,0.00,,,0.00,VWS V14.01,2013-07-13 13:44:00,
2013-07-13 06:49:00,54.9,45.7,29.90,SW,216,2.2,2.2,71,0.00,,,0.00,VWS V14.01,2013-07-13 13:49:00,
2013-07-13 06:54:00,54.9,45.7,29.90,SSW,211,0.0,2.2,71,0.00,,,0.00,VWS V14.01,2013-07-13 13:54:00,
2013-07-13 06:59:00,54.9,45.7,29.90,South,183,3.1,3.1,71,0.00,,,0.00,VWS V14.01,2013-07-13 13:59:00,
2013-07-13 07:04:00,55.0,45.8,29.90,SSW,205,2.2,2.2,71,0.00,,,0.00,VWS V14.01,2013-07-13 14:04:00,
2013-07-13 07:09:00,55.2,46.0,29.90,SSW,206,3.6,3.6,71,0.00,,,0.00,VWS V14.01,2013-07-13 14:09:00,
2013-07-13 07:14:00,55.4,46.2,29.90,South,186,0.0,3.1,71,0.00,,,0.00,VWS V14.01,2013-07-13 14:14:00,
2013-07-13 07:19:00,55.4,46.2,29.90,SW,235,2.7,4.0,71,0.00,,,0.00,VWS V14.01,2013-07-13 14:19:00,
2013-07-13 07:24:00,55.6,46.3,29.90,SSW,201,2.7,3.1,71,0.00,,,0.00,VWS V14.01,2013-07-13 14:24:00,
2013-07-13 07:29:00,55.6,46.3,29.90,SSW,208,2.7,5.4,71,0.00,,,0.00,VWS V14.01,2013-07-13 14:29:00,
2013-07-13 07:34:00,55.8,46.5,29.90,SSW,197,0.0,2.7,71,0.00,,,0.00,VWS V14.01,2013-07-13 14:34:00,
2013-07-13 07:40:00,55.9,46.7,29.90,South,172,0.0,3.6,71,0.00,,,0.00,VWS V14.01,2013-07-13 14:40:00,
2013-07-13 07:45:00,55.9,46.7,29.90,SSW,209,4.0,4.0,71,0.00,,,0.00,VWS V14.01,2013-07-13 14:45:00,
2013-07-13 07:50:00,56.1,46.9,29.93,SW,227,3.6,3.6,71,0.00,,,0.00,VWS V14.01,2013-07-13 14:50:00,
2013-07-13 07:55:00,56.3,47.4,29.93,SSW,213,2.7,3.1,72,0.00,,,0.00,VWS V14.01,2013-07-13 14:55:00,
2013-07-13 08:00:00,56.3,47.4,29.93,SW,223,4.9,4.9,72,0.00,,,0.00,VWS V14.01,2013-07-13 15:00:00,
2013-07-13 08:05:00,56.5,47.6,29.93,WSW,240,3.1,4.0,72,0.00,,,0.00,VWS V14.01,2013-07-13 15:05:00,
2013-07-13 08:10:00,56.7,47.4,29.93,SSW,199,3.6,5.4,71,0.00,,,0.00,VWS V14.01,2013-07-13 15:10:00,
2013-07-13 08:15:00,56.8,47.5,29.93,WSW,239,2.7,4.0,71,0.00,,,0.00,VWS V14.01,2013-07-13 15:15:00,
2013-07-13 08:20:00,56.8,47.5,29.93,SW,234,2.7,3.6,71,0.00,,,0.00,VWS V14.01,2013-07-13 15:20:00,
2013-07-13 08:25:00,57.0,47.7,29.93,SW,228,3.6,5.4,71,0.00,,,0.00,VWS V14.01,2013-07-13 15:25:00,
2013-07-13 08:30:00,57.2,47.5,29.93,SW,219,4.9,4.9,70,0.00,,,0.00,VWS V14.01,2013-07-13 15:30:00,
2013-07-13 08:35:00,57.4,46.9,29.93,SW,235,2.7,3.6,68,0.00,,,0.00,VWS V14.01,2013-07-13 15:35:00,
2013-07-13 08:40:00,57.4,46.5,29.93,WSW,250,4.9,4.9,67,0.00,,,0.00,VWS V14.01,2013-07-13 15:40:00,
2013-07-13 08:45:00,57.6,45.9,29.93,SW,223,3.1,3.1,65,0.00,,,0.00,VWS V14.01,2013-07-13 15:45:00,
2013-07-13 08:50:00,57.9,45.4,29.93,WSW,239,4.0,4.0,63,0.00,,,0.00,VWS V14.01,2013-07-13 15:50:00,
2013-07-13 08:55:00,57.9,43.2,29.93,SW,230,2.7,2.7,58,0.00,,,0.00,VWS V14.01,2013-07-13 15:55:00,
2013-07-13 09:00:00,58.3,41.7,29.93,SW,228,4.0,4.0,54,0.00,,,0.00,VWS V14.01,2013-07-13 16:00:00,
2013-07-13 09:05:00,58.3,39.7,29.93,South,191,2.2,2.2,50,0.00,,,0.00,VWS V14.01,2013-07-13 16:05:00,
2013-07-13 09:10:00,58.5,38.3,29.93,South,177,3.6,3.6,47,0.00,,,0.00,VWS V14.01,2013-07-13 16:10:00,
2013-07-13 09:15:00,59.0,37.7,29.93,WSW,246,3.6,5.4,45,0.00,,,0.00,VWS V14.01,2013-07-13 16:15:00,
2013-07-13 09:20:00,58.8,34.6,29.93,SW,224,4.9,4.9,40,0.00,,,0.00,VWS V14.01,2013-07-13 16:20:00,
2013-07-13 09:25:00,59.2,33.6,29.93,WSW,240,4.0,4.0,38,0.00,,,0.00,VWS V14.01,2013-07-13 16:25:00,
2013-07-13 09:30:00,59.5,33.9,29.93,SW,230,6.3,6.3,38,0.00,,,0.00,VWS V14.01,2013-07-13 16:30:00,
2013-07-13 09:35:00,59.5,32.6,29.93,SW,235,5.4,5.4,36,0.00,,,0.00,VWS V14.01,2013-07-13 16:35:00,
2013-07-13 09:40:00,59.5,31.9,29.93,South,184,5.4,5.4,35,0.00,,,0.00,VWS V14.01,2013-07-13 16:40:00,
2013-07-13 09:45:00,59.7,32.0,29.93,SSW,194,3.6,5.4,35,0.00,,,0.00,VWS V14.01,2013-07-13 16:45:00,
2013-07-13 09:50:00,59.5,31.9,29.93,SSW,213,3.1,3.6,35,0.00,,,0.00,VWS V14.01,2013-07-13 16:50:00,
2013-07-13 09:55:00,59.7,32.0,29.93,SSW,199,0.0,0.0,35,0.00,,,0.00,VWS V14.01,2013-07-13 16:55:00,
2013-07-13 10:00:00,60.1,32.4,29.93,SSW,212,4.0,4.0,35,0.00,,,0.00,VWS V14.01,2013-07-13 17:00:00,
2013-07-13 10:05:00,60.3,32.5,29.93,SSW,205,3.1,3.1,35,0.00,,,0.00,VWS V14.01,2013-07-13 17:05:00,
2013-07-13 10:10:00,60.4,32.0,29.93,SW,232,2.7,2.7,34,0.00,,,0.00,VWS V14.01,2013-07-13 17:10:00,
2013-07-13 10:15:00,60.6,32.1,29.93,SW,226,3.1,5.4,34,0.00,,,0.00,VWS V14.01,2013-07-13 17:15:00,
2013-07-13 10:20:00,60.8,30.8,29.90,SSW,207,2.7,2.7,32,0.00,,,0.00,VWS V14.01,2013-07-13 17:20:00,
2013-07-13 10:25:00,61.2,30.3,29.90,WSW,248,5.4,5.4,31,0.00,,,0.00,VWS V14.01,2013-07-13 17:25:00,
2013-07-13 10:30:00,61.2,28.7,29.90,SSW,206,3.1,5.4,29,0.00,,,0.00,VWS V14.01,2013-07-13 17:30:00,
2013-07-13 10:35:00,61.2,28.7,29.93,SW,229,3.1,3.1,29,0.00,,,0.00,VWS V14.01,2013-07-13 17:35:00,
2013-07-13 10:40:00,61.5,29.0,29.93,SW,235,5.4,5.4,29,0.00,,,0.00,VWS V14.01,2013-07-13 17:40:00,
2013-07-13 10:45:00,61.7,28.3,29.93,SSW,195,3.6,5.4,28,0.00,,,0.00,VWS V14.01,2013-07-13 17:45:00,
2013-07-13 10:50:00,62.1,29.5,29.93,SW,220,5.4,5.4,29,0.00,,,0.00,VWS V14.01,2013-07-13 17:50:00,
2013-07-13 10:55:00,62.2,27.9,29.93,SSW,205,2.7,2.7,27,0.00,,,0.00,VWS V14.01,2013-07-13 17:55:00,
2013-07-13 11:00:00,62.2,27.9,29.93,SSW,203,4.0,4.0,27,0.00,,,0.00,VWS V14.01,2013-07-13 18:00:00,
2013-07-13 11:05:00,62.4,28.0,29.93,WSW,254,5.8,5.8,27,0.00,,,0.00,VWS V14.01,2013-07-13 18:05:00,
2013-07-13 11:10:00,62.2,27.0,29.93,WSW,249,5.4,5.4,26,0.00,,,0.00,VWS V14.01,2013-07-13 18:10:00,
2013-07-13 11:15:00,62.4,28.0,29.93,SW,221,3.6,4.0,27,0.00,,,0.00,VWS V14.01,2013-07-13 18:15:00,
2013-07-13 11:20:00,62.8,27.4,29.93,SSW,212,4.0,5.4,26,0.00,,,0.00,VWS V14.01,2013-07-13 18:20:00,
2013-07-13 11:25:00,63.1,26.8,29.93,West,270,5.8,5.8,25,0.00,,,0.00,VWS V14.01,2013-07-13 18:25:00,
2013-07-13 11:30:00,63.1,26.8,29.93,WNW,282,4.0,4.0,25,0.00,,,0.00,VWS V14.01,2013-07-13 18:30:00,
2013-07-13 11:35:00,63.7,27.2,29.93,WSW,256,4.9,5.4,25,0.00,,,0.00,VWS V14.01,2013-07-13 18:35:00,
2013-07-13 11:40:00,64.0,26.5,29.93,SW,233,4.0,5.8,24,0.00,,,0.00,VWS V14.01,2013-07-13 18:40:00,
2013-07-13 11:45:00,63.7,26.2,29.93,SSW,201,3.1,6.3,24,0.00,,,0.00,VWS V14.01,2013-07-13 18:45:00,
2013-07-13 11:50:00,64.0,26.5,29.93,WSW,239,6.3,6.3,24,0.00,,,0.00,VWS V14.01,2013-07-13 18:50:00,
2013-07-13 11:55:00,64.2,26.7,29.93,SW,215,5.4,5.8,24,0.00,,,0.00,VWS V14.01,2013-07-13 18:55:00,
2013-07-13 12:00:00,64.4,25.8,29.93,SW,221,3.6,6.3,23,0.00,,,0.00,VWS V14.01,2013-07-13 19:00:00,
2013-07-13 12:05:00,64.2,26.7,29.93,SW,222,4.9,8.1,24,0.00,,,0.00,VWS V14.01,2013-07-13 19:05:00,
2013-07-13 12:10:00,63.9,26.4,29.93,East,100,2.7,4.0,24,0.00,,,0.00,VWS V14.01,2013-07-13 19:10:00,
2013-07-13 12:15:00,64.0,26.5,29.93,SW,222,3.6,4.0,24,0.00,,,0.00,VWS V14.01,2013-07-13 19:15:00,
2013-07-13 12:20:00,64.2,26.7,29.96,SW,217,4.9,6.3,24,0.00,,,0.00,VWS V14.01,2013-07-13 19:20:00,
2013-07-13 12:25:00,64.2,26.7,29.96,SSW,192,3.1,8.3,24,0.00,,,0.00,VWS V14.01,2013-07-13 19:25:00,
2013-07-13 12:30:00,64.4,25.8,29.96,South,187,4.0,4.9,23,0.00,,,0.00,VWS V14.01,2013-07-13 19:30:00,
2013-07-13 12:35:00,64.6,26.0,29.93,SSE,160,4.0,5.4,23,0.00,,,0.00,VWS V14.01,2013-07-13 19:35:00,
2013-07-13 12:40:00,64.6,22.6,29.93,WSW,237,7.2,7.2,20,0.00,,,0.00,VWS V14.01,2013-07-13 19:40:00,
2013-07-13 12:45:00,64.8,22.8,29.93,SSW,200,5.4,5.4,20,0.00,,,0.00,VWS V14.01,2013-07-13 19:45:00,
2013-07-13 12:50:00,65.1,23.1,29.93,SSW,207,2.7,4.0,20,0.00,,,0.00,VWS V14.01,2013-07-13 19:50:00,
2013-07-13 12:55:00,65.5,20.9,29.93,SW,229,2.7,4.9,18,0.00,,,0.00,VWS V14.01,2013-07-13 19:55:00,
2013-07-13 13:00:00,66.0,21.3,29.93,SSW,201,4.5,4.5,18,0.00,,,0.00,VWS V14.01,2013-07-13 20:00:00,
2013-07-13 13:05:00,65.8,16.9,29.93,WSW,244,4.0,6.3,15,0.00,,,0.00,VWS V14.01,2013-07-13 20:05:00,
2013-07-13 13:10:00,65.7,21.0,29.93,SSW,202,4.9,6.3,18,0.00,,,0.00,VWS V14.01,2013-07-13 20:10:00,
2013-07-13 13:16:00,65.7,16.8,29.93,SSW,211,6.3,7.6,15,0.00,,,0.00,VWS V14.01,2013-07-13 20:16:00,
2013-07-13 13:21:00,65.5,16.6,29.93,SW,227,4.9,4.9,15,0.00,,,0.00,VWS V14.01,2013-07-13 20:21:00,
2013-07-13 13:26:00,66.2,20.1,29.93,SW,220,3.6,5.4,17,0.00,,,0.00,VWS V14.01,2013-07-13 20:26:00,
2013-07-13 13:31:00,66.7,17.6,29.93,WSW,249,5.4,5.4,15,0.00,,,0.00,VWS V14.01,2013-07-13 20:31:00,
2013-07-13 13:36:00,66.9,17.8,29.93,WSW,252,6.3,6.3,15,0.00,,,0.00,VWS V14.01,2013-07-13 20:36:00,
2013-07-13 13:41:00,66.9,17.8,29.93,SW,227,3.6,3.6,15,0.00,,,0.00,VWS V14.01,2013-07-13 20:41:00,
2013-07-13 13:46:00,66.9,12.7,29.93,SSW,209,3.1,5.8,12,0.00,,,0.00,VWS V14.01,2013-07-13 20:46:00,
2013-07-13 13:51:00,66.7,17.6,29.93,SW,236,4.0,6.3,15,0.00,,,0.00,VWS V14.01,2013-07-13 20:51:00,
2013-07-13 13:56:00,66.9,12.7,29.93,SSW,198,4.9,6.3,12,0.00,,,0.00,VWS V14.01,2013-07-13 20:56:00,
2013-07-13 14:01:00,66.6,17.5,29.93,West,265,5.4,5.8,15,0.00,,,0.00,VWS V14.01,2013-07-13 21:01:00,
2013-07-13 14:06:00,66.2,17.2,29.93,WSW,250,3.1,4.9,15,0.00,,,0.00,VWS V14.01,2013-07-13 21:06:00,
2013-07-13 14:11:00,66.2,17.2,29.93,SSW,208,3.1,4.9,15,0.00,,,0.00,VWS V14.01,2013-07-13 21:11:00,
2013-07-13 14:16:00,66.7,17.6,29.93,South,190,3.6,4.0,15,0.00,,,0.00,VWS V14.01,2013-07-13 21:16:00,
2013-07-13 14:21:00,66.6,17.5,29.93,West,259,3.1,5.4,15,0.00,,,0.00,VWS V14.01,2013-07-13 21:21:00,
2013-07-13 14:26:00,66.6,17.5,29.93,SW,214,3.6,3.6,15,0.00,,,0.00,VWS V14.01,2013-07-13 21:26:00,
2013-07-13 14:31:00,66.7,17.6,29.93,West,262,3.1,5.8,15,0.00,,,0.00,VWS V14.01,2013-07-13 21:31:00,
2013-07-13 14:36:00,67.1,17.9,29.93,SSW,197,4.9,4.9,15,0.00,,,0.00,VWS V14.01,2013-07-13 21:36:00,
2013-07-13 14:41:00,67.5,13.1,29.93,West,268,3.6,3.6,12,0.00,,,0.00,VWS V14.01,2013-07-13 21:41:00,
2013-07-13 14:46:00,67.6,13.2,29.93,WSW,238,3.1,4.9,12,0.00,,,0.00,VWS V14.01,2013-07-13 21:46:00,
2013-07-13 14:51:00,67.3,13.0,29.93,WSW,248,3.6,5.4,12,0.00,,,0.00,VWS V14.01,2013-07-13 21:51:00,
2013-07-13 14:56:00,67.5,13.1,29.93,SE,145,3.1,4.9,12,0.00,,,0.00,VWS V14.01,2013-07-13 21:56:00,
2013-07-13 15:01:00,68.2,13.7,29.93,South,190,2.7,2.7,12,0.00,,,0.00,VWS V14.01,2013-07-13 22:01:00,
2013-07-13 15:06:00,68.4,13.8,29.93,WSW,249,3.1,4.9,12,0.00,,,0.00,VWS V14.01,2013-07-13 22:06:00,
2013-07-13 15:11:00,68.0,13.5,29.93,SW,218,3.6,5.8,12,0.00,,,0.00,VWS V14.01,2013-07-13 22:11:00,
2013-07-13 15:16:00,67.8,13.4,29.93,SW,225,5.8,5.8,12,0.00,,,0.00,VWS V14.01,2013-07-13 22:16:00,
2013-07-13 15:21:00,68.2,13.7,29.93,SW,232,5.4,5.4,12,0.00,,,0.00,VWS V14.01,2013-07-13 22:21:00,
2013-07-13 15:26:00,68.4,13.8,29.93,SW,217,3.6,4.9,12,0.00,,,0.00,VWS V14.01,2013-07-13 22:26:00,
2013-07-13 15:31:00,68.5,13.9,29.93,WSW,248,2.7,6.3,12,0.00,,,0.00,VWS V14.01,2013-07-13 22:31:00,
2013-07-13 15:36:00,68.4,13.8,29.90,WSW,240,4.0,4.0,12,0.00,,,0.00,VWS V14.01,2013-07-13 22:36:00,
2013-07-13 15:41:00,68.2,13.7,29.90,SW,226,3.6,3.6,12,0.00,,,0.00,VWS V14.01,2013-07-13 22:41:00,
2013-07-13 15:46:00,68.7,14.1,29.90,SW,223,4.0,4.0,12,0.00,,,0.00,VWS V14.01,2013-07-13 22:46:00,
2013-07-13 15:51:00,68.5,13.9,29.90,SSW,200,4.9,4.9,12,0.00,,,0.00,VWS V14.01,2013-07-13 22:51:00,
2013-07-13 15:56:00,68.7,14.1,29.90,SSW,201,4.0,4.0,12,0.00,,,0.00,VWS V14.01,2013-07-13 22:56:00,
2013-07-13 16:01:00,68.7,14.1,29.90,South,182,3.1,4.9,12,0.00,,,0.00,VWS V14.01,2013-07-13 23:01:00,
2013-07-13 16:06:00,68.7,14.1,29.90,SW,230,5.4,5.4,12,0.00,,,0.00,VWS V14.01,2013-07-13 23:06:00,
2013-07-13 16:11:00,68.2,13.7,29.90,WSW,247,3.6,5.4,12,0.00,,,0.00,VWS V14.01,2013-07-13 23:11:00,
2013-07-13 16:16:00,68.0,13.5,29.90,SW,229,5.8,5.8,12,0.00,,,0.00,VWS V14.01,2013-07-13 23:16:00,
2013-07-13 16:21:00,67.8,13.4,29.90,WSW,243,5.8,5.8,12,0.00,,,0.00,VWS V14.01,2013-07-13 23:21:00,
2013-07-13 16:26:00,67.6,13.2,29.90,WNW,297,3.6,4.0,12,0.00,,,0.00,VWS V14.01,2013-07-13 23:26:00,
2013-07-13 16:31:00,67.8,13.4,29.90,SSW,204,4.0,4.0,12,0.00,,,0.00,VWS V14.01,2013-07-13 23:31:00,
2013-07-13 16:36:00,68.2,13.7,29.90,SW,231,2.7,4.0,12,0.00,,,0.00,VWS V14.01,2013-07-13 23:36:00,
2013-07-13 16:41:00,68.4,13.8,29.90,SSW,194,3.6,3.6,12,0.00,,,0.00,VWS V14.01,2013-07-13 23:41:00,
2013-07-13 16:46:00,67.8,13.4,29.90,SW,224,5.4,5.8,12,0.00,,,0.00,VWS V14.01,2013-07-13 23:46:00,
2013-07-13 16:51:00,67.6,13.2,29.90,SW,228,4.5,4.5,12,0.00,,,0.00,VWS V14.01,2013-07-13 23:51:00,
2013-07-13 16:56:00,67.8,13.4,29.90,SW,219,5.4,5.4,12,0.00,,,0.00,VWS V14.01,2013-07-13 23:56:00,
2013-07-13 17:01:00,67.3,13.0,29.90,SW,215,4.0,5.8,12,0.00,,,0.00,VWS V14.01,2013-07-14 00:01:00,
2013-07-13 17:06:00,67.5,13.1,29.90,SW,216,4.0,4.0,12,0.00,,,0.00,VWS V14.01,2013-07-14 00:06:00,
2013-07-13 17:11:00,67.5,13.1,29.90,WSW,243,4.0,5.8,12,0.00,,,0.00,VWS V14.01,2013-07-14 00:11:00,
2013-07-13 17:16:00,66.9,12.7,29.90,SW,230,3.6,3.6,12,0.00,,,0.00,VWS V14.01,2013-07-14 00:16:00,
2013-07-13 17:21:00,66.7,12.5,29.90,South,191,3.1,4.0,12,0.00,,,0.00,VWS V14.01,2013-07-14 00:21:00,
2013-07-13 17:26:00,65.8,13.6,29.90,SSW,203,3.1,4.0,13,0.00,,,0.00,VWS V14.01,2013-07-14 00:26:00,
2013-07-13 17:31:00,65.3,13.2,29.90,SSW,203,5.8,5.8,13,0.00,,,0.00,VWS V14.01,2013-07-14 00:31:00,
2013-07-13 17:36:00,64.9,16.2,29.87,SW,216,4.0,4.9,15,0.00,,,0.00,VWS V14.01,2013-07-14 00:36:00,
2013-07-13 17:41:00,64.8,16.1,29.87,South,181,6.3,6.3,15,0.00,,,0.00,VWS V14.01,2013-07-14 00:41:00,
2013-07-13 17:46:00,64.6,20.1,29.87,South,186,4.9,7.6,18,0.00,,,0.00,VWS V14.01,2013-07-14 00:46:00,
2013-07-13 17:51:00,64.4,20.0,29.90,WSW,239,4.9,6.3,18,0.00,,,0.00,VWS V14.01,2013-07-14 00:51:00,
2013-07-13 17:56:00,64.2,19.9,29.90,WSW,241,3.6,4.9,18,0.00,,,0.00,VWS V14.01,2013-07-14 00:56:00,
2013-07-13 18:01:00,64.4,22.5,29.90,SSW,213,3.1,4.0,20,0.00,,,0.00,VWS V14.01,2013-07-14 01:01:00,
2013-07-13 18:06:00,64.6,22.6,29.90,SSE,167,3.6,5.4,20,0.00,,,0.00,VWS V14.01,2013-07-14 01:06:00,
2013-07-13 18:11:00,64.9,22.9,29.90,SSW,201,0.0,3.1,20,0.00,,,0.00,VWS V14.01,2013-07-14 01:11:00,
2013-07-13 18:16:00,64.8,22.8,29.90,SW,223,4.0,4.9,20,0.00,,,0.00,VWS V14.01,2013-07-14 01:16:00,
2013-07-13 18:21:00,64.6,22.6,29.90,SSW,211,0.0,3.6,20,0.00,,,0.00,VWS V14.01,2013-07-14 01:21:00,
2013-07-13 18:26:00,64.6,22.6,29.90,SSW,211,2.2,4.0,20,0.00,,,0.00,VWS V14.01,2013-07-14 01:26:00,
2013-07-13 18:31:00,64.6,22.6,29.90,SSW,207,4.0,6.3,20,0.00,,,0.00,VWS V14.01,2013-07-14 01:31:00,
2013-07-13 18:36:00,64.2,23.5,29.87,SW,214,4.0,5.8,21,0.00,,,0.00,VWS V14.01,2013-07-14 01:36:00,
2013-07-13 18:41:00,63.5,22.9,29.87,SSW,209,3.6,4.0,21,0.00,,,0.00,VWS V14.01,2013-07-14 01:41:00,
2013-07-13 18:46:00,63.5,26.1,29.87,SW,220,7.6,7.6,24,0.00,,,0.00,VWS V14.01,2013-07-14 01:46:00,
2013-07-13 18:51:00,63.1,25.8,29.87,South,191,3.1,5.4,24,0.00,,,0.00,VWS V14.01,2013-07-14 01:51:00,
2013-07-13 18:56:00,63.0,25.6,29.87,SW,229,5.4,5.4,24,0.00,,,0.00,VWS V14.01,2013-07-14 01:56:00,
2013-07-13 19:01:00,62.2,26.0,29.87,SSW,211,3.6,5.8,25,0.00,,,0.00,VWS V14.01,2013-07-14 02:01:00,
2013-07-13 19:07:00,61.9,26.6,29.90,SW,223,4.0,6.3,26,0.00,,,0.00,VWS V14.01,2013-07-14 02:07:00,
2013-07-13 19:12:00,61.3,27.1,29.90,SW,217,5.4,6.3,27,0.00,,,0.00,VWS V14.01,2013-07-14 02:12:00,
2013-07-13 19:16:00,61.0,28.5,29.90,SSW,208,3.1,3.1,29,0.00,,,0.00,VWS V14.01,2013-07-14 02:16:00,
2013-07-13 19:21:00,61.2,30.3,29.90,SSW,201,3.6,4.5,31,0.00,,,0.00,VWS V14.01,2013-07-14 02:21:00,
2013-07-13 19:27:00,61.0,29.4,29.90,SW,232,3.6,3.6,30,0.00,,,0.00,VWS V14.01,2013-07-14 02:27:00,
2013-07-13 19:32:00,60.3,30.3,29.90,SW,234,4.0,4.9,32,0.00,,,0.00,VWS V14.01,2013-07-14 02:32:00,
2013-07-13 19:37:00,59.9,31.5,29.90,South,178,3.6,4.9,34,0.00,,,0.00,VWS V14.01,2013-07-14 02:37:00,
2013-07-13 19:42:00,59.7,31.3,29.90,SW,226,4.9,4.9,34,0.00,,,0.00,VWS V14.01,2013-07-14 02:42:00,
2013-07-13 19:47:00,59.5,31.2,29.90,SW,226,4.0,4.0,34,0.00,,,0.00,VWS V14.01,2013-07-14 02:47:00,
2013-07-13 19:52:00,59.4,31.0,29.90,SSW,212,4.0,5.4,34,0.00,,,0.00,VWS V14.01,2013-07-14 02:52:00,
2013-07-13 19:57:00,59.0,30.7,29.90,SSW,209,3.6,5.8,34,0.00,,,0.00,VWS V14.01,2013-07-14 02:57:00,
2013-07-13 20:02:00,58.6,31.1,29.90,SW,230,5.4,6.3,35,0.00,,,0.00,VWS V14.01,2013-07-14 03:02:00,
2013-07-13 20:07:00,57.9,31.1,29.90,SSW,210,3.1,5.4,36,0.00,,,0.00,VWS V14.01,2013-07-14 03:07:00,
2013-07-13 20:12:00,57.6,30.8,29.90,SW,236,2.7,5.4,36,0.00,,,0.00,VWS V14.01,2013-07-14 03:12:00,
2013-07-13 20:17:00,57.0,31.7,29.90,WSW,252,4.0,4.0,38,0.00,,,0.00,VWS V14.01,2013-07-14 03:17:00,
2013-07-13 20:22:00,56.8,32.2,29.90,SSW,204,4.0,4.0,39,0.00,,,0.00,VWS V14.01,2013-07-14 03:22:00,
2013-07-13 20:27:00,56.7,32.6,29.90,SSW,209,4.0,4.0,40,0.00,,,0.00,VWS V14.01,2013-07-14 03:27:00,
2013-07-13 20:32:00,56.3,32.9,29.90,SSW,213,3.6,4.0,41,0.00,,,0.00,VWS V14.01,2013-07-14 03:32:00,
2013-07-13 20:37:00,56.1,32.8,29.90,SW,227,3.1,3.6,41,0.00,,,0.00,VWS V14.01,2013-07-14 03:37:00,
2013-07-13 20:42:00,56.1,33.4,29.90,SW,231,2.7,3.6,42,0.00,,,0.00,VWS V14.01,2013-07-14 03:42:00,
2013-07-13 20:47:00,56.1,33.4,29.90,SW,218,2.7,2.7,42,0.00,,,0.00,VWS V14.01,2013-07-14 03:47:00,
2013-07-13 20:52:00,55.9,33.8,29.90,SW,218,2.7,2.7,43,0.00,,,0.00,VWS V14.01,2013-07-14 03:52:00,
2013-07-13 20:57:00,55.9,34.4,29.90,SW,218,0.0,0.0,44,0.00,,,0.00,VWS V14.01,2013-07-14 03:57:00,
2013-07-13 21:01:00,55.9,34.4,29.90,WSW,238,2.7,2.7,44,0.00,,,0.00,VWS V14.01,2013-07-14 04:01:00,
2013-07-13 21:06:00,55.9,34.4,29.87,WSW,243,0.0,2.2,44,0.00,,,0.00,VWS V14.01,2013-07-14 04:06:00,
2013-07-13 21:11:00,55.8,34.8,29.87,SW,219,0.0,2.7,45,0.00,,,0.00,VWS V14.01,2013-07-14 04:11:00,
2013-07-13 21:16:00,55.8,34.8,29.87,SW,224,0.0,0.0,45,0.00,,,0.00,VWS V14.01,2013-07-14 04:16:00,
2013-07-13 21:21:00,55.8,34.8,29.90,SW,224,0.0,0.0,45,0.00,,,0.00,VWS V14.01,2013-07-14 04:21:00,
2013-07-13 21:26:00,55.8,34.8,29.90,SW,224,0.0,0.0,45,0.00,,,0.00,VWS V14.01,2013-07-14 04:26:00,
2013-07-13 21:31:00,55.6,34.6,29.90,SW,224,0.0,0.0,45,0.00,,,0.00,VWS V14.01,2013-07-14 04:31:00,
2013-07-13 21:36:00,55.6,34.6,29.90,SSW,208,0.0,0.0,45,0.00,,,0.00,VWS V14.01,2013-07-14 04:36:00,
2013-07-13 21:41:00,55.6,35.2,29.90,SSW,212,2.2,2.2,46,0.00,,,0.00,VWS V14.01,2013-07-14 04:41:00,
2013-07-13 21:46:00,55.4,35.0,29.90,SW,220,0.0,0.0,46,0.00,,,0.00,VWS V14.01,2013-07-14 04:46:00,
2013-07-13 21:51:00,55.4,35.0,29.90,SSW,197,0.0,2.2,46,0.00,,,0.00,VWS V14.01,2013-07-14 04:51:00,
2013-07-13 21:56:00,55.4,35.0,29.90,SW,214,2.7,3.1,46,0.00,,,0.00,VWS V14.01,2013-07-14 04:56:00,
2013-07-13 22:01:00,55.4,35.0,29.90,SSW,197,2.2,2.7,46,0.00,,,0.00,VWS V14.01,2013-07-14 05:01:00,
2013-07-13 22:06:00,55.2,35.4,29.93,SSW,207,0.0,2.2,47,0.00,,,0.00,VWS V14.01,2013-07-14 05:06:00,
2013-07-13 22:11:00,55.2,35.4,29.93,SSW,207,0.0,0.0,47,0.00,,,0.00,VWS V14.01,2013-07-14 05:11:00,
2013-07-13 22:16:00,55.2,35.4,29.93,SSW,207,0.0,0.0,47,0.00,,,0.00,VWS V14.01,2013-07-14 05:16:00,
2013-07-13 22:21:00,55.2,35.4,29.93,SSW,206,0.0,3.1,47,0.00,,,0.00,VWS V14.01,2013-07-14 05:21:00,
2013-07-13 22:26:00,55.2,35.4,29.93,SSW,203,0.0,0.0,47,0.00,,,0.00,VWS V14.01,2013-07-14 05:26:00,
2013-07-13 22:31:00,55.2,35.4,29.93,SSW,211,0.0,2.2,47,0.00,,,0.00,VWS V14.01,2013-07-14 05:31:00,
2013-07-13 22:36:00,55.2,35.9,29.93,SW,215,2.7,2.7,48,0.00,,,0.00,VWS V14.01,2013-07-14 05:36:00,
2013-07-13 22:41:00,55.0,35.7,29.93,SSW,212,0.0,0.0,48,0.00,,,0.00,VWS V14.01,2013-07-14 05:41:00,
2013-07-13 22:47:00,55.0,35.7,29.93,SSW,207,0.0,2.2,48,0.00,,,0.00,VWS V14.01,2013-07-14 05:47:00,
2013-07-13 22:51:00,54.9,35.6,29.93,SSW,210,0.0,0.0,48,0.00,,,0.00,VWS V14.01,2013-07-14 05:51:00,
2013-07-13 22:56:00,54.9,35.6,29.93,SSW,209,2.7,3.6,48,0.00,,,0.00,VWS V14.01,2013-07-14 05:56:00,
2013-07-13 23:02:00,54.9,36.1,29.93,SSW,198,2.7,2.7,49,0.00,,,0.00,VWS V14.01,2013-07-14 06:02:00,
2013-07-13 23:06:00,54.7,35.9,29.93,SSW,205,0.0,0.0,49,0.00,,,0.00,VWS V14.01,2013-07-14 06:06:00,
2013-07-13 23:11:00,54.7,35.9,29.93,SW,228,0.0,2.7,49,0.00,,,0.00,VWS V14.01,2013-07-14 06:11:00,
2013-07-13 23:16:00,54.5,35.8,29.93,SW,215,0.0,2.7,49,0.00,,,0.00,VWS V14.01,2013-07-14 06:16:00,
2013-07-13 23:22:00,54.5,36.3,29.93,SSW,204,2.7,4.0,50,0.00,,,0.00,VWS V14.01,2013-07-14 06:22:00,
2013-07-13 23:27:00,54.5,36.3,29.93,SSW,202,3.1,3.1,50,0.00,,,0.00,VWS V14.01,2013-07-14 06:27:00,
2013-07-13 23:32:00,54.5,36.8,29.93,SSW,202,0.0,2.2,51,0.00,,,0.00,VWS V14.01,2013-07-14 06:32:00,
2013-07-13 23:37:00,54.5,36.8,29.93,SSW,210,2.7,3.1,51,0.00,,,0.00,VWS V14.01,2013-07-14 06:37:00,
2013-07-13 23:42:00,54.5,36.8,29.93,SSW,205,2.7,3.1,51,0.00,,,0.00,VWS V14.01,2013-07-14 06:42:00,
2013-07-13 23:47:00,54.5,37.2,29.93,SSW,209,2.7,3.1,52,0.00,,,0.00,VWS V14.01,2013-07-14 06:47:00,
2013-07-13 23:52:00,54.7,37.4,29.93,SW,220,2.7,4.9,52,0.00,,,0.00,VWS V14.01,2013-07-14 06:52:00,
2013-07-13 23:57:00,54.7,37.9,29.93,SSW,205,3.1,4.0,53,0.00,,,0.00,VWS V14.01,2013-07-14 06:57:00,